Time;durP1;ratioP1;P1;durP2;ratioP2;P2;SDS_P1;SDS_P2;PMS_P1;PMS_P2;Temp;Humidity;BMP_temperature;BMP_pressure;BME280_temperature;BME280_humidity;BME280_pressure;Samples;Min_cycle;Max_cycle;Signal;HPM_P1;HPM_P2
2023/12/10 00:02:09;;;;;;;38.72;10.15;;;;;;;;;;5000452;28;25158;-75
2023/12/10 00:04:36;;;;;;;41.25;7.90;;;;;;;;;;5005740;28;25072;-73
2023/12/10 00:07:02;;;;;;;41.70;8.57;;;;;;;;;;5016248;28;25060;-75
2023/12/10 00:09:28;;;;;;;51.83;8.88;;;;;;;;;;5005610;28;25063;-75
2023/12/10 00:11:54;;;;;;;44.78;9.68;;;;;;;;;;5001305;28;25148;-73
2023/12/10 00:14:20;;;;;;;33.70;8.20;;;;;;;;;;5007338;28;25062;-75
2023/12/10 00:16:46;;;;;;;38.60;7.90;;;;;;;;;;5006342;28;25121;-73
2023/12/10 00:19:12;;;;;;;39.90;8.73;;;;;;;;;;5026501;28;25096;-75
2023/12/10 00:21:38;;;;;;;39.83;8.77;;;;;;;;;;5011733;28;25057;-75
2023/12/10 00:24:05;;;;;;;29.80;7.85;;;;;;;;;;5012822;28;25096;-73
2023/12/10 00:26:31;;;;;;;43.55;8.73;;;;;;;;;;5007718;28;25076;-74
2023/12/10 00:28:57;;;;;;;34.13;7.65;;;;;;;;;;5010788;28;25170;-74
2023/12/10 00:31:22;;;;;;;46.65;8.68;;;;;;;;;;5011485;28;25072;-74
2023/12/10 00:33:48;;;;;;;52.00;8.93;;;;;;;;;;5006502;28;25067;-73
2023/12/10 00:36:15;;;;;;;32.70;9.02;;;;;;;;;;5021605;28;25062;-73
2023/12/10 00:38:42;;;;;;;41.72;8.52;;;;;;;;;;5012289;28;25053;-75
2023/12/10 00:41:10;;;;;;;45.80;9.57;;;;;;;;;;5007715;28;25092;-74
2023/12/10 00:43:36;;;;;;;39.67;6.97;;;;;;;;;;5007326;28;25066;-74
2023/12/10 00:46:02;;;;;;;42.83;9.07;;;;;;;;;;5006116;28;25168;-75
2023/12/10 00:48:29;;;;;;;43.35;7.85;;;;;;;;;;5006583;28;25145;-75
2023/12/10 00:50:55;;;;;;;39.08;7.95;;;;;;;;;;5005497;28;25074;-73
2023/12/10 00:53:20;;;;;;;49.25;9.27;;;;;;;;;;5005671;28;25073;-76
2023/12/10 00:55:47;;;;;;;34.40;8.43;;;;;;;;;;5004680;28;25173;-74
2023/12/10 00:58:14;;;;;;;42.55;8.77;;;;;;;;;;5004061;28;25054;-75
2023/12/10 01:00:40;;;;;;;50.63;10.50;;;;;;;;;;5006439;28;25060;-75
2023/12/10 01:03:06;;;;;;;43.28;9.18;;;;;;;;;;5005027;28;25052;-75
2023/12/10 01:05:32;;;;;;;43.60;11.30;;;;;;;;;;5005920;28;25079;-75
2023/12/10 01:07:58;;;;;;;47.20;12.25;;;;;;;;;;5004171;28;25060;-74
2023/12/10 01:10:25;;;;;;;44.10;11.15;;;;;;;;;;5005432;28;25123;-77
2023/12/10 01:12:51;;;;;;;39.28;11.30;;;;;;;;;;4999737;28;25083;-75
2023/12/10 01:15:29;;;;;;;35.35;11.73;;;;;;;;;;5004798;28;25120;-75
2023/12/10 01:17:55;;;;;;;38.00;10.07;;;;;;;;;;5004890;28;25119;-74
2023/12/10 01:20:21;;;;;;;38.08;9.60;;;;;;;;;;5006172;28;25077;-74
2023/12/10 01:22:47;;;;;;;36.83;10.07;;;;;;;;;;5004169;28;25066;-76
2023/12/10 01:25:13;;;;;;;43.97;10.00;;;;;;;;;;5005334;28;25079;-74
2023/12/10 01:27:39;;;;;;;35.15;9.27;;;;;;;;;;5003107;28;25045;-75
2023/12/10 01:30:05;;;;;;;34.00;9.75;;;;;;;;;;5005813;28;25099;-73
2023/12/10 01:32:31;;;;;;;44.20;11.52;;;;;;;;;;5006733;28;25107;-72
2023/12/10 01:34:57;;;;;;;34.95;8.80;;;;;;;;;;5000250;28;25183;-71
2023/12/10 01:37:23;;;;;;;35.50;8.85;;;;;;;;;;5004317;28;25100;-74
2023/12/10 01:39:49;;;;;;;41.63;8.43;;;;;;;;;;5013058;28;25156;-73
2023/12/10 01:42:15;;;;;;;31.83;8.27;;;;;;;;;;5001319;28;25081;-73
2023/12/10 01:44:42;;;;;;;35.47;8.32;;;;;;;;;;5007200;28;25073;-72
2023/12/10 01:47:09;;;;;;;50.42;8.63;;;;;;;;;;5006394;28;25063;-72
2023/12/10 01:49:35;;;;;;;35.35;7.30;;;;;;;;;;5006788;28;25133;-73
2023/12/10 01:52:00;;;;;;;38.30;6.60;;;;;;;;;;5002260;28;25138;-74
2023/12/10 01:54:26;;;;;;;42.50;8.07;;;;;;;;;;5003918;28;25067;-72
2023/12/10 01:56:53;;;;;;;32.45;7.38;;;;;;;;;;5004348;28;25093;-73
2023/12/10 01:59:20;;;;;;;41.15;8.57;;;;;;;;;;5004654;28;25111;-76
2023/12/10 02:01:46;;;;;;;37.42;7.93;;;;;;;;;;5003800;28;25071;-76
2023/12/10 02:04:12;;;;;;;32.00;8.48;;;;;;;;;;4999601;28;25093;-75
2023/12/10 02:06:39;;;;;;;30.40;6.93;;;;;;;;;;5004060;28;25080;-74
2023/12/10 02:09:13;;;;;;;43.72;8.50;;;;;;;;;;5001886;28;25070;-73
2023/12/10 02:11:42;;;;;;;30.60;6.85;;;;;;;;;;5005446;28;25051;-74
2023/12/10 02:14:09;;;;;;;29.40;6.30;;;;;;;;;;5007374;28;25061;-72
2023/12/10 02:16:35;;;;;;;38.70;7.90;;;;;;;;;;5005953;28;25083;-76
2023/12/10 02:19:00;;;;;;;34.40;7.53;;;;;;;;;;4997513;28;25072;-73
2023/12/10 02:21:27;;;;;;;37.00;7.20;;;;;;;;;;5005351;28;25045;-74
2023/12/10 02:23:59;;;;;;;46.35;7.68;;;;;;;;;;5005607;28;25142;-74
2023/12/10 02:26:25;;;;;;;46.88;8.18;;;;;;;;;;5000657;28;25144;-74
2023/12/10 02:28:52;;;;;;;43.42;7.65;;;;;;;;;;5004945;28;25076;-75
2023/12/10 02:31:18;;;;;;;49.08;7.93;;;;;;;;;;5003049;28;25057;-72
2023/12/10 02:33:45;;;;;;;53.03;9.85;;;;;;;;;;5004775;28;25061;-72
2023/12/10 02:36:12;;;;;;;31.52;7.18;;;;;;;;;;5001285;28;25178;-72
2023/12/10 02:38:38;;;;;;;39.20;8.05;;;;;;;;;;5008686;28;25250;-72
2023/12/10 02:41:04;;;;;;;39.83;6.88;;;;;;;;;;5015524;28;25073;-73
2023/12/10 02:43:30;;;;;;;37.58;7.88;;;;;;;;;;5006026;28;25055;-74
2023/12/10 02:45:56;;;;;;;40.75;7.45;;;;;;;;;;5007520;28;25071;-72
2023/12/10 02:48:22;;;;;;;44.75;8.93;;;;;;;;;;5003788;28;25099;-72
2023/12/10 02:50:51;;;;;;;40.88;8.02;;;;;;;;;;5009273;28;25060;-72
2023/12/10 02:53:17;;;;;;;45.00;7.97;;;;;;;;;;5005663;28;25057;-72
2023/12/10 02:55:43;;;;;;;48.70;8.60;;;;;;;;;;5008154;28;25098;-74
2023/12/10 02:58:09;;;;;;;41.13;7.22;;;;;;;;;;5008915;28;25070;-74
2023/12/10 03:00:35;;;;;;;48.40;7.72;;;;;;;;;;5007056;28;25075;-74
2023/12/10 03:03:01;;;;;;;50.25;8.52;;;;;;;;;;5008031;28;25068;-72
2023/12/10 03:05:27;;;;;;;53.88;9.25;;;;;;;;;;5005870;28;25066;-73
2023/12/10 03:07:53;;;;;;;42.10;8.82;;;;;;;;;;5006885;28;25062;-76
2023/12/10 03:10:20;;;;;;;43.88;8.63;;;;;;;;;;5006715;28;25054;-72
2023/12/10 03:12:46;;;;;;;56.67;10.20;;;;;;;;;;5003605;28;25064;-73
2023/12/10 03:15:12;;;;;;;43.97;8.68;;;;;;;;;;5005075;28;25074;-72
2023/12/10 03:17:38;;;;;;;46.78;9.38;;;;;;;;;;5003768;28;25048;-74
2023/12/10 03:20:04;;;;;;;51.33;9.43;;;;;;;;;;5015982;28;25068;-75
2023/12/10 03:22:30;;;;;;;46.00;8.32;;;;;;;;;;5009061;28;25077;-74
2023/12/10 03:24:56;;;;;;;47.45;9.30;;;;;;;;;;5021331;28;25108;-74
2023/12/10 03:27:23;;;;;;;42.03;10.20;;;;;;;;;;5006716;28;25076;-74
2023/12/10 03:29:49;;;;;;;43.85;9.40;;;;;;;;;;5005744;28;25168;-75
2023/12/10 03:32:15;;;;;;;38.83;8.63;;;;;;;;;;5004940;28;25077;-73
2023/12/10 03:34:41;;;;;;;44.63;9.38;;;;;;;;;;5002394;28;25136;-71
2023/12/10 03:37:08;;;;;;;36.58;9.30;;;;;;;;;;5008301;28;25087;-75
2023/12/10 03:39:34;;;;;;;44.58;8.02;;;;;;;;;;5004074;28;25058;-73
2023/12/10 03:42:00;;;;;;;42.75;9.10;;;;;;;;;;5007455;28;25139;-74
2023/12/10 03:44:26;;;;;;;45.75;10.48;;;;;;;;;;5001749;28;25134;-72
2023/12/10 03:46:52;;;;;;;46.70;8.50;;;;;;;;;;5004782;28;25157;-73
2023/12/10 03:49:18;;;;;;;34.05;6.65;;;;;;;;;;5008275;28;25085;-71
2023/12/10 03:51:44;;;;;;;52.08;8.85;;;;;;;;;;5011588;28;25079;-72
2023/12/10 03:54:10;;;;;;;45.30;9.10;;;;;;;;;;5011934;28;25061;-72
2023/12/10 03:56:36;;;;;;;38.97;8.50;;;;;;;;;;5017141;28;25066;-72
2023/12/10 03:59:02;;;;;;;39.20;8.25;;;;;;;;;;5014787;28;25072;-71
2023/12/10 04:01:28;;;;;;;39.90;7.97;;;;;;;;;;5011730;28;25074;-71
2023/12/10 04:03:54;;;;;;;56.22;9.00;;;;;;;;;;5023147;28;25079;-73
2023/12/10 04:06:20;;;;;;;42.33;10.07;;;;;;;;;;5016906;28;25090;-72
2023/12/10 04:08:45;;;;;;;41.72;7.90;;;;;;;;;;5020335;28;25055;-71
2023/12/10 04:11:11;;;;;;;40.55;8.68;;;;;;;;;;5018680;28;25137;-76
2023/12/10 04:13:37;;;;;;;38.95;7.88;;;;;;;;;;5014136;28;25073;-73
2023/12/10 04:16:03;;;;;;;30.58;8.15;;;;;;;;;;5004815;28;25058;-72
2023/12/10 04:18:29;;;;;;;50.90;9.07;;;;;;;;;;5006020;28;25068;-72
2023/12/10 04:20:56;;;;;;;52.67;9.20;;;;;;;;;;5005816;28;25069;-72
2023/12/10 04:23:22;;;;;;;37.55;7.88;;;;;;;;;;5005877;28;25096;-73
2023/12/10 04:25:48;;;;;;;43.60;7.75;;;;;;;;;;5004186;28;25165;-73
2023/12/10 04:28:14;;;;;;;35.95;7.35;;;;;;;;;;5009326;28;25064;-71
2023/12/10 04:30:40;;;;;;;41.25;7.38;;;;;;;;;;5007302;28;25057;-72
2023/12/10 04:33:06;;;;;;;38.45;6.72;;;;;;;;;;5004457;28;25073;-72
2023/12/10 04:35:32;;;;;;;34.50;6.57;;;;;;;;;;5002242;28;25054;-71
2023/12/10 04:37:58;;;;;;;36.70;6.60;;;;;;;;;;5003207;28;25135;-73
2023/12/10 04:40:24;;;;;;;38.20;8.13;;;;;;;;;;5006731;28;25127;-73
2023/12/10 04:42:50;;;;;;;33.33;7.25;;;;;;;;;;5001300;28;25086;-74
2023/12/10 04:45:16;;;;;;;48.90;8.40;;;;;;;;;;5005035;28;25076;-74
2023/12/10 04:47:42;;;;;;;36.72;8.10;;;;;;;;;;5005808;28;25097;-74
2023/12/10 04:50:08;;;;;;;44.88;8.45;;;;;;;;;;4999654;28;25062;-73
2023/12/10 04:52:34;;;;;;;38.45;7.90;;;;;;;;;;5002036;28;25088;-73
2023/12/10 04:55:00;;;;;;;44.97;9.80;;;;;;;;;;5005385;28;25065;-72
2023/12/10 04:57:27;;;;;;;47.25;7.95;;;;;;;;;;5004663;28;25100;-73
2023/12/10 04:59:53;;;;;;;36.10;7.90;;;;;;;;;;5004150;28;25075;-73
2023/12/10 05:02:18;;;;;;;35.63;7.00;;;;;;;;;;5005764;28;25068;-72
2023/12/10 05:04:45;;;;;;;36.13;7.50;;;;;;;;;;5003644;28;25131;-71
2023/12/10 05:07:10;;;;;;;40.17;7.75;;;;;;;;;;5005715;28;25079;-73
2023/12/10 05:09:36;;;;;;;43.15;6.53;;;;;;;;;;5003700;28;25084;-74
2023/12/10 05:12:02;;;;;;;41.05;7.40;;;;;;;;;;5001088;28;25079;-73
2023/12/10 05:14:28;;;;;;;30.63;7.75;;;;;;;;;;5003607;28;25089;-74
2023/12/10 05:16:54;;;;;;;32.60;6.63;;;;;;;;;;5002479;28;25114;-73
2023/12/10 05:19:20;;;;;;;36.80;7.47;;;;;;;;;;5006120;28;25087;-73
2023/12/10 05:21:46;;;;;;;29.60;7.03;;;;;;;;;;5005615;28;25058;-72
2023/12/10 05:24:12;;;;;;;37.28;8.32;;;;;;;;;;5005430;28;25067;-73
2023/12/10 05:26:38;;;;;;;41.58;7.50;;;;;;;;;;5004701;28;25106;-73
2023/12/10 05:29:04;;;;;;;36.97;8.80;;;;;;;;;;5004419;28;25052;-72
2023/12/10 05:31:30;;;;;;;37.13;9.07;;;;;;;;;;5005626;28;25081;-73
2023/12/10 05:33:56;;;;;;;40.50;8.02;;;;;;;;;;5020075;28;25145;-75
2023/12/10 05:36:22;;;;;;;38.05;7.70;;;;;;;;;;5005923;28;25127;-73
2023/12/10 05:38:48;;;;;;;42.63;7.22;;;;;;;;;;5014151;28;25112;-73
2023/12/10 05:41:14;;;;;;;40.00;6.75;;;;;;;;;;5022288;28;25096;-72
2023/12/10 05:43:40;;;;;;;43.65;8.38;;;;;;;;;;5005099;28;25076;-76
2023/12/10 05:46:06;;;;;;;31.42;7.72;;;;;;;;;;5004511;28;25005;-74
2023/12/10 05:48:33;;;;;;;47.65;9.65;;;;;;;;;;5004302;28;25056;-72
2023/12/10 05:50:59;;;;;;;37.30;7.75;;;;;;;;;;5003087;28;25058;-71
2023/12/10 05:53:25;;;;;;;41.20;7.22;;;;;;;;;;5004508;28;25070;-74
2023/12/10 05:55:50;;;;;;;31.42;7.70;;;;;;;;;;5003692;28;25061;-74
2023/12/10 05:58:16;;;;;;;43.00;7.82;;;;;;;;;;5005605;28;25059;-72
2023/12/10 06:00:42;;;;;;;40.95;7.78;;;;;;;;;;5008589;28;25067;-72
2023/12/10 06:03:08;;;;;;;35.35;7.18;;;;;;;;;;5013215;28;25044;-74
2023/12/10 06:05:34;;;;;;;40.00;8.02;;;;;;;;;;5011108;28;25067;-72
2023/12/10 06:08:00;;;;;;;35.92;8.18;;;;;;;;;;5005217;28;25064;-71
2023/12/10 06:10:26;;;;;;;32.47;6.68;;;;;;;;;;5005190;28;25102;-74
2023/12/10 06:12:53;;;;;;;37.97;7.63;;;;;;;;;;5007261;28;25107;-75
2023/12/10 06:15:19;;;;;;;35.25;7.43;;;;;;;;;;5004722;28;25102;-75
2023/12/10 06:17:45;;;;;;;40.97;6.72;;;;;;;;;;5003681;28;25069;-75
2023/12/10 06:20:11;;;;;;;32.80;6.90;;;;;;;;;;5023545;28;25068;-74
2023/12/10 06:22:37;;;;;;;29.42;6.10;;;;;;;;;;5008571;28;25131;-72
2023/12/10 06:25:03;;;;;;;32.65;6.78;;;;;;;;;;5008540;28;25116;-73
2023/12/10 06:27:29;;;;;;;40.08;7.15;;;;;;;;;;5008534;28;25144;-75
2023/12/10 06:29:55;;;;;;;36.17;7.43;;;;;;;;;;5004358;28;25054;-73
2023/12/10 06:32:22;;;;;;;32.72;6.72;;;;;;;;;;5008709;28;25055;-73
2023/12/10 06:34:48;;;;;;;37.90;7.88;;;;;;;;;;5008897;28;25119;-73
2023/12/10 06:37:14;;;;;;;42.72;8.38;;;;;;;;;;5008552;28;25092;-73
2023/12/10 06:39:40;;;;;;;34.50;5.95;;;;;;;;;;5005601;28;25084;-74
2023/12/10 06:42:06;;;;;;;38.95;8.60;;;;;;;;;;5008222;28;25013;-72
2023/12/10 06:44:34;;;;;;;33.83;6.47;;;;;;;;;;5006340;28;25147;-74
2023/12/10 06:47:00;;;;;;;44.28;7.03;;;;;;;;;;5005139;28;25068;-73
2023/12/10 06:49:26;;;;;;;38.67;7.85;;;;;;;;;;5007540;28;25052;-73
2023/12/10 06:51:52;;;;;;;53.83;7.72;;;;;;;;;;5001450;28;25142;-72
2023/12/10 06:54:18;;;;;;;47.35;7.45;;;;;;;;;;5008138;28;25137;-71
2023/12/10 06:56:44;;;;;;;36.00;6.57;;;;;;;;;;5009062;28;25098;-72
2023/12/10 06:59:10;;;;;;;41.65;6.80;;;;;;;;;;5008981;28;25071;-74
2023/12/10 07:01:37;;;;;;;39.65;7.63;;;;;;;;;;5007420;28;25109;-74
2023/12/10 07:04:04;;;;;;;38.30;7.00;;;;;;;;;;5006738;28;25105;-72
2023/12/10 07:06:30;;;;;;;43.53;7.50;;;;;;;;;;5005212;28;25064;-73
2023/12/10 07:08:56;;;;;;;32.38;6.55;;;;;;;;;;5008531;28;24936;-74
2023/12/10 07:11:22;;;;;;;32.17;6.53;;;;;;;;;;5004027;28;25047;-72
2023/12/10 07:13:48;;;;;;;37.00;7.68;;;;;;;;;;5005029;28;25057;-74
2023/12/10 07:16:15;;;;;;;37.35;8.13;;;;;;;;;;5005856;28;25081;-72
2023/12/10 07:18:40;;;;;;;39.55;7.50;;;;;;;;;;5007579;28;25045;-70
2023/12/10 07:21:06;;;;;;;38.78;7.88;;;;;;;;;;5020854;28;25145;-73
2023/12/10 07:23:33;;;;;;;26.83;6.35;;;;;;;;;;5001463;28;25151;-73
2023/12/10 07:25:59;;;;;;;34.20;7.00;;;;;;;;;;5006615;28;24889;-73
2023/12/10 07:28:25;;;;;;;37.20;7.60;;;;;;;;;;5007103;28;25125;-75
2023/12/10 07:30:51;;;;;;;35.65;7.35;;;;;;;;;;5004258;28;25137;-75
2023/12/10 07:33:17;;;;;;;39.60;8.18;;;;;;;;;;5003911;28;25068;-75
2023/12/10 07:35:42;;;;;;;43.17;7.75;;;;;;;;;;5004530;28;25059;-72
2023/12/10 07:38:08;;;;;;;37.45;7.53;;;;;;;;;;5007010;28;25091;-72
2023/12/10 07:40:34;;;;;;;38.38;7.00;;;;;;;;;;5004139;28;25062;-73
2023/12/10 07:43:01;;;;;;;38.55;7.60;;;;;;;;;;5001404;28;25077;-75
2023/12/10 07:45:29;;;;;;;40.85;9.30;;;;;;;;;;5006124;28;25136;-72
2023/12/10 07:47:56;;;;;;;35.30;6.57;;;;;;;;;;5009454;28;25042;-72
2023/12/10 07:50:22;;;;;;;40.97;8.57;;;;;;;;;;5008022;28;25095;-75
2023/12/10 07:52:48;;;;;;;34.40;7.55;;;;;;;;;;5004941;28;25092;-72
2023/12/10 07:55:14;;;;;;;40.55;6.80;;;;;;;;;;5006399;28;25075;-73
2023/12/10 07:57:40;;;;;;;43.17;8.80;;;;;;;;;;5006510;28;25071;-74
2023/12/10 08:00:06;;;;;;;31.67;6.38;;;;;;;;;;5002955;28;25154;-72
2023/12/10 08:02:33;;;;;;;36.95;8.32;;;;;;;;;;5007241;28;25084;-74
2023/12/10 08:04:59;;;;;;;44.13;7.30;;;;;;;;;;5004676;28;25073;-73
2023/12/10 08:07:25;;;;;;;42.92;7.85;;;;;;;;;;5005929;28;25048;-73
2023/12/10 08:09:51;;;;;;;33.55;7.45;;;;;;;;;;5005306;28;25051;-72
2023/12/10 08:12:17;;;;;;;43.63;7.18;;;;;;;;;;5006247;28;25060;-74
2023/12/10 08:14:44;;;;;;;41.63;7.35;;;;;;;;;;5006480;28;25101;-72
2023/12/10 08:17:10;;;;;;;45.83;8.00;;;;;;;;;;5008096;28;25078;-74
2023/12/10 08:19:37;;;;;;;35.38;7.40;;;;;;;;;;5005092;28;25128;-73
2023/12/10 08:22:03;;;;;;;28.77;7.47;;;;;;;;;;5005318;28;25054;-72
2023/12/10 08:24:29;;;;;;;37.67;7.25;;;;;;;;;;5005299;28;25128;-73
2023/12/10 08:26:55;;;;;;;36.78;7.47;;;;;;;;;;5003664;28;25107;-72
2023/12/10 08:29:21;;;;;;;36.58;7.25;;;;;;;;;;5008705;28;25060;-72
2023/12/10 08:31:48;;;;;;;38.95;7.57;;;;;;;;;;5004293;28;25097;-72
2023/12/10 08:34:14;;;;;;;31.95;6.38;;;;;;;;;;5005273;28;25071;-72
2023/12/10 08:36:40;;;;;;;39.20;6.82;;;;;;;;;;5003329;28;25093;-73
2023/12/10 08:39:06;;;;;;;41.28;7.13;;;;;;;;;;5016091;28;25143;-72
2023/12/10 08:41:32;;;;;;;42.05;8.23;;;;;;;;;;5005640;28;25120;-73
2023/12/10 08:43:58;;;;;;;35.95;6.25;;;;;;;;;;5009888;28;25086;-72
2023/12/10 08:46:24;;;;;;;40.75;6.35;;;;;;;;;;5010817;28;25079;-74
2023/12/10 08:48:51;;;;;;;33.53;6.90;;;;;;;;;;5002442;28;25147;-72
2023/12/10 08:51:17;;;;;;;42.15;7.75;;;;;;;;;;5000351;28;25063;-73
2023/12/10 08:53:43;;;;;;;34.65;7.72;;;;;;;;;;5005918;28;25083;-72
2023/12/10 08:56:09;;;;;;;37.53;7.03;;;;;;;;;;5004693;28;25085;-73
2023/12/10 08:58:35;;;;;;;35.20;7.40;;;;;;;;;;5005627;28;25081;-75
2023/12/10 09:01:01;;;;;;;36.70;6.25;;;;;;;;;;5006022;28;25075;-73
2023/12/10 09:03:27;;;;;;;38.88;6.75;;;;;;;;;;5010608;28;25149;-74
2023/12/10 09:05:53;;;;;;;36.58;7.32;;;;;;;;;;5013519;28;25104;-72
2023/12/10 09:08:18;;;;;;;37.92;6.55;;;;;;;;;;5006775;28;25058;-72
2023/12/10 09:10:44;;;;;;;30.02;6.13;;;;;;;;;;5006458;28;25070;-72
2023/12/10 09:13:10;;;;;;;37.30;7.22;;;;;;;;;;5016771;28;25094;-72
2023/12/10 09:15:36;;;;;;;43.55;7.68;;;;;;;;;;5013637;28;25069;-74
2023/12/10 09:18:02;;;;;;;36.88;6.07;;;;;;;;;;5014348;28;25079;-72
2023/12/10 09:20:28;;;;;;;33.45;7.53;;;;;;;;;;5009349;28;25077;-73
2023/12/10 09:22:54;;;;;;;32.50;6.35;;;;;;;;;;5010178;28;25128;-72
2023/12/10 09:25:20;;;;;;;31.38;6.55;;;;;;;;;;5012556;28;25067;-73
2023/12/10 09:27:46;;;;;;;41.15;7.90;;;;;;;;;;5024710;28;25144;-72
2023/12/10 09:30:12;;;;;;;40.05;6.72;;;;;;;;;;5006484;28;25114;-71
2023/12/10 09:32:41;;;;;;;35.03;5.68;;;;;;;;;;5001049;28;25134;-72
2023/12/10 09:35:08;;;;;;;38.33;6.57;;;;;;;;;;5003945;28;25084;-73
2023/12/10 09:37:34;;;;;;;38.78;6.30;;;;;;;;;;5005122;28;25063;-70
2023/12/10 09:40:00;;;;;;;37.42;6.88;;;;;;;;;;5001225;28;25067;-73
2023/12/10 09:42:26;;;;;;;34.67;6.53;;;;;;;;;;5007868;28;25077;-74
2023/12/10 09:44:52;;;;;;;29.77;6.10;;;;;;;;;;5024942;28;25095;-74
2023/12/10 09:47:18;;;;;;;41.35;6.78;;;;;;;;;;5006745;28;25079;-72
2023/12/10 09:49:45;;;;;;;32.20;6.60;;;;;;;;;;5012004;28;25162;-73
2023/12/10 09:52:11;;;;;;;37.72;6.75;;;;;;;;;;5017184;28;25079;-71
2023/12/10 09:54:41;;;;;;;36.72;7.03;;;;;;;;;;5020977;28;25083;-72
2023/12/10 09:57:07;;;;;;;29.95;6.15;;;;;;;;;;5033934;28;25075;-72
2023/12/10 09:59:35;;;;;;;44.78;7.15;;;;;;;;;;5015256;28;25168;-72
2023/12/10 10:02:04;;;;;;;40.17;7.60;;;;;;;;;;5015993;28;25143;-74
2023/12/10 10:04:30;;;;;;;42.03;7.88;;;;;;;;;;5015511;28;25093;-73
2023/12/10 10:06:56;;;;;;;40.17;6.68;;;;;;;;;;5032308;28;25061;-72
2023/12/10 10:09:23;;;;;;;40.55;6.90;;;;;;;;;;5015234;28;25082;-71
2023/12/10 10:11:50;;;;;;;46.17;7.40;;;;;;;;;;5013034;28;25060;-72
2023/12/10 10:14:16;;;;;;;33.33;6.10;;;;;;;;;;5011195;28;25060;-72
2023/12/10 10:16:48;;;;;;;41.80;7.22;;;;;;;;;;5013977;28;25083;-72
2023/12/10 10:19:14;;;;;;;40.53;7.00;;;;;;;;;;5028925;28;25065;-72
2023/12/10 10:21:41;;;;;;;40.58;6.93;;;;;;;;;;5010241;28;25079;-72
2023/12/10 10:24:07;;;;;;;36.40;6.43;;;;;;;;;;5002163;28;25067;-72
2023/12/10 10:26:34;;;;;;;38.83;7.65;;;;;;;;;;5005276;28;25062;-72
2023/12/10 10:29:00;;;;;;;36.35;7.50;;;;;;;;;;5002617;28;25166;-71
2023/12/10 10:31:26;;;;;;;30.98;6.38;;;;;;;;;;5002468;28;25074;-72
2023/12/10 10:33:52;;;;;;;38.83;6.28;;;;;;;;;;5004871;28;25068;-71
2023/12/10 10:36:21;;;;;;;32.17;7.45;;;;;;;;;;5004458;28;25057;-73
2023/12/10 10:38:48;;;;;;;23.70;5.93;;;;;;;;;;5004739;28;25100;-73
2023/12/10 10:41:14;;;;;;;28.00;5.90;;;;;;;;;;4997275;28;25145;-73
2023/12/10 10:43:41;;;;;;;35.75;6.43;;;;;;;;;;5003150;28;25159;-71
2023/12/10 10:46:07;;;;;;;27.33;6.20;;;;;;;;;;5003027;28;25092;-71
2023/12/10 10:48:35;;;;;;;35.95;6.43;;;;;;;;;;5003223;28;25058;-71
2023/12/10 10:51:01;;;;;;;28.23;5.47;;;;;;;;;;5006740;28;25100;-70
2023/12/10 10:53:28;;;;;;;31.98;6.32;;;;;;;;;;5003748;28;25062;-70
2023/12/10 10:55:54;;;;;;;26.90;6.50;;;;;;;;;;5014224;28;25068;-70
2023/12/10 10:58:27;;;;;;;22.95;6.07;;;;;;;;;;5003057;28;25158;-73
2023/12/10 11:00:54;;;;;;;26.77;6.38;;;;;;;;;;5005701;28;25066;-71
2023/12/10 11:03:20;;;;;;;31.08;6.25;;;;;;;;;;5006261;28;25038;-71
2023/12/10 11:05:46;;;;;;;29.10;6.60;;;;;;;;;;5006925;28;25061;-70
2023/12/10 11:08:12;;;;;;;31.73;5.25;;;;;;;;;;5007013;28;25050;-74
2023/12/10 11:10:46;;;;;;;34.00;6.82;;;;;;;;;;5006778;28;25069;-71
2023/12/10 11:13:13;;;;;;;20.95;4.93;;;;;;;;;;5004340;28;25067;-71
2023/12/10 11:15:39;;;;;;;26.00;5.10;;;;;;;;;;5008015;28;25068;-70
2023/12/10 11:18:05;;;;;;;26.45;4.97;;;;;;;;;;5006554;28;25080;-71
2023/12/10 11:20:41;;;;;;;20.55;4.63;;;;;;;;;;5006250;28;25101;-72
2023/12/10 11:23:08;;;;;;;29.05;6.13;;;;;;;;;;5005511;28;25053;-71
2023/12/10 11:25:34;;;;;;;27.70;5.47;;;;;;;;;;5011397;28;25130;-73
2023/12/10 11:28:02;;;;;;;27.23;5.40;;;;;;;;;;5011049;28;25127;-71
2023/12/10 11:30:28;;;;;;;31.83;6.15;;;;;;;;;;5010527;28;25073;-72
2023/12/10 11:32:54;;;;;;;33.60;5.85;;;;;;;;;;5007284;28;25127;-73
2023/12/10 11:35:20;;;;;;;34.45;6.35;;;;;;;;;;5007231;28;25131;-72
2023/12/10 11:37:46;;;;;;;38.13;6.07;;;;;;;;;;5006848;28;25055;-71
2023/12/10 11:40:12;;;;;;;36.95;6.97;;;;;;;;;;5009970;28;25053;-73
2023/12/10 11:42:38;;;;;;;38.17;7.07;;;;;;;;;;5005947;28;25053;-72
2023/12/10 11:45:05;;;;;;;33.55;6.45;;;;;;;;;;5005833;28;25135;-71
2023/12/10 11:47:31;;;;;;;45.35;7.15;;;;;;;;;;5002364;28;25165;-72
2023/12/10 11:49:57;;;;;;;29.48;6.82;;;;;;;;;;5005750;28;25094;-72
2023/12/10 11:52:23;;;;;;;34.72;7.43;;;;;;;;;;5006040;28;25088;-72
2023/12/10 11:54:49;;;;;;;35.78;6.53;;;;;;;;;;4999986;28;25143;-73
2023/12/10 11:57:16;;;;;;;38.60;6.82;;;;;;;;;;5003840;28;25069;-72
2023/12/10 11:59:45;;;;;;;38.65;6.40;;;;;;;;;;5007021;28;25074;-71
2023/12/10 12:02:11;;;;;;;38.17;6.90;;;;;;;;;;5005054;28;25070;-72
2023/12/10 12:04:37;;;;;;;40.85;6.80;;;;;;;;;;5006439;28;25155;-72
2023/12/10 12:07:03;;;;;;;34.30;7.10;;;;;;;;;;5005380;28;25050;-72
2023/12/10 12:09:30;;;;;;;41.92;8.57;;;;;;;;;;5009589;28;25098;-74
2023/12/10 12:11:56;;;;;;;38.45;7.75;;;;;;;;;;5005522;28;25079;-71
2023/12/10 12:14:22;;;;;;;37.15;7.00;;;;;;;;;;5006291;28;25067;-72
2023/12/10 12:16:48;;;;;;;35.30;6.18;;;;;;;;;;5005081;28;25058;-73
2023/12/10 12:19:24;;;;;;;35.92;7.07;;;;;;;;;;5008471;28;25067;-72
2023/12/10 12:21:50;;;;;;;32.88;6.57;;;;;;;;;;5003196;28;25086;-72
2023/12/10 12:24:16;;;;;;;50.13;8.10;;;;;;;;;;5005144;28;25145;-71
2023/12/10 12:26:42;;;;;;;50.42;7.82;;;;;;;;;;5004033;28;25049;-73
2023/12/10 12:29:08;;;;;;;41.15;6.97;;;;;;;;;;5009807;28;25116;-73
2023/12/10 12:31:34;;;;;;;42.17;8.18;;;;;;;;;;5004096;28;25097;-72
2023/12/10 12:34:00;;;;;;;40.97;8.88;;;;;;;;;;5002840;28;25068;-72
2023/12/10 12:36:26;;;;;;;38.40;7.15;;;;;;;;;;5005490;28;25055;-73
2023/12/10 12:38:52;;;;;;;47.10;9.30;;;;;;;;;;5020322;28;25077;-73
2023/12/10 12:41:18;;;;;;;40.10;8.90;;;;;;;;;;5020089;28;25140;-73
2023/12/10 12:43:44;;;;;;;45.70;9.43;;;;;;;;;;5001133;28;25167;-72
2023/12/10 12:46:10;;;;;;;47.75;10.10;;;;;;;;;;5003857;28;25077;-72
2023/12/10 12:48:36;;;;;;;51.25;9.48;;;;;;;;;;5005483;28;25056;-73
2023/12/10 12:51:02;;;;;;;48.53;10.82;;;;;;;;;;5004830;28;25097;-71
2023/12/10 12:53:28;;;;;;;46.90;9.38;;;;;;;;;;5006064;28;25151;-73
2023/12/10 12:55:54;;;;;;;42.58;9.73;;;;;;;;;;5005522;28;25077;-73
2023/12/10 12:58:19;;;;;;;41.35;9.80;;;;;;;;;;5006586;28;25057;-71
2023/12/10 13:00:45;;;;;;;49.22;9.27;;;;;;;;;;5004889;28;25059;-72
2023/12/10 13:03:11;;;;;;;60.67;11.40;;;;;;;;;;5005119;28;25078;-72
2023/12/10 13:05:37;;;;;;;53.42;10.40;;;;;;;;;;5003326;28;25052;-72
2023/12/10 13:08:03;;;;;;;62.25;11.05;;;;;;;;;;5007622;28;25061;-71
2023/12/10 13:10:30;;;;;;;59.58;11.77;;;;;;;;;;5004252;28;25096;-74
2023/12/10 13:12:56;;;;;;;49.67;10.43;;;;;;;;;;5001419;28;25156;-73
2023/12/10 13:15:22;;;;;;;55.40;10.27;;;;;;;;;;5003043;28;25058;-72
2023/12/10 13:17:47;;;;;;;58.63;10.40;;;;;;;;;;5001724;28;25088;-72
2023/12/10 13:20:14;;;;;;;58.88;11.43;;;;;;;;;;5004815;28;25076;-73
2023/12/10 13:22:40;;;;;;;58.47;10.73;;;;;;;;;;5004370;28;25086;-73
2023/12/10 13:25:06;;;;;;;51.15;11.65;;;;;;;;;;5001449;28;25100;-72
2023/12/10 13:27:32;;;;;;;63.42;12.48;;;;;;;;;;5005620;28;25071;-75
2023/12/10 13:29:58;;;;;;;71.40;14.10;;;;;;;;;;5004830;28;25143;-73
2023/12/10 13:32:23;;;;;;;63.05;11.82;;;;;;;;;;5005143;28;25120;-73
2023/12/10 13:34:49;;;;;;;48.42;11.05;;;;;;;;;;4997703;28;25132;-72
2023/12/10 13:37:15;;;;;;;51.80;11.25;;;;;;;;;;5015018;28;25085;-74
2023/12/10 13:39:41;;;;;;;54.08;11.50;;;;;;;;;;5004224;28;25066;-74
2023/12/10 13:42:07;;;;;;;49.10;9.98;;;;;;;;;;5003845;28;25066;-71
2023/12/10 13:44:33;;;;;;;52.72;11.73;;;;;;;;;;5005958;28;25058;-73
2023/12/10 13:46:59;;;;;;;60.20;11.95;;;;;;;;;;5004702;28;25068;-73
2023/12/10 13:49:25;;;;;;;54.25;11.77;;;;;;;;;;5003239;28;25085;-73
2023/12/10 13:51:51;;;;;;;63.47;13.32;;;;;;;;;;5003570;28;25073;-73
2023/12/10 13:54:17;;;;;;;50.10;10.60;;;;;;;;;;5004645;28;25146;-73
2023/12/10 13:56:43;;;;;;;52.63;11.15;;;;;;;;;;5004528;28;25135;-72
2023/12/10 13:59:09;;;;;;;58.63;12.35;;;;;;;;;;5002596;28;25057;-73
2023/12/10 14:01:35;;;;;;;56.60;11.50;;;;;;;;;;5003598;28;25074;-72
2023/12/10 14:04:02;;;;;;;49.65;12.40;;;;;;;;;;5002823;28;25052;-73
2023/12/10 14:06:29;;;;;;;60.95;11.57;;;;;;;;;;5003309;28;25049;-73
2023/12/10 14:08:55;;;;;;;67.28;13.25;;;;;;;;;;5004485;28;25066;-73
2023/12/10 14:11:21;;;;;;;47.20;12.30;;;;;;;;;;5006527;28;25148;-73
2023/12/10 14:13:47;;;;;;;53.10;12.20;;;;;;;;;;5007770;28;25092;-73
2023/12/10 14:16:12;;;;;;;50.03;11.23;;;;;;;;;;5005420;28;25138;-73
2023/12/10 14:18:39;;;;;;;58.00;11.15;;;;;;;;;;5004381;28;25173;-72
2023/12/10 14:21:05;;;;;;;53.70;13.75;;;;;;;;;;5007846;28;25067;-73
2023/12/10 14:23:31;;;;;;;67.47;12.23;;;;;;;;;;5010142;28;25055;-72